Time;durP1;ratioP1;P1;durP2;ratioP2;P2;SDS_P1;SDS_P2;PMS_P1;PMS_P2;Temp;Humidity;BMP_temperature;BMP_pressure;BME280_temperature;BME280_humidity;BME280_pressure;Samples;Min_cycle;Max_cycle;Signal;HPM_P1;HPM_P2
2022/09/01 00:01:19;;;;;;;3.60;2.95;;;17.80;90.10;;;;;;5154142;27;20033;-57
2022/09/01 00:03:51;;;;;;;4.78;3.33;;;17.70;90.20;;;;;;5154647;27;20525;-54
2022/09/01 00:06:22;;;;;;;6.00;3.63;;;17.70;90.20;;;;;;5158941;27;20428;-55
2022/09/01 00:08:53;;;;;;;6.72;2.95;;;17.70;90.20;;;;;;5172868;27;20029;-59
2022/09/01 00:11:20;;;;;;;7.70;3.60;;;17.70;90.30;;;;;;5162979;27;20079;-54
2022/09/01 00:13:47;;;;;;;5.55;4.10;;;17.70;90.50;;;;;;5168226;27;20545;-53
2022/09/01 00:16:16;;;;;;;6.22;4.78;;;17.70;90.30;;;;;;5135559;27;20046;-53
2022/09/01 00:18:51;;;;;;;5.20;4.03;;;17.70;90.30;;;;;;5154043;27;20039;-55
2022/09/01 00:21:18;;;;;;;;;;;17.70;90.30;;;;;;5153164;27;20023;-53
2022/09/01 00:23:43;;;;;;;5.03;2.85;;;17.70;90.50;;;;;;5153631;27;19911;-53
2022/09/01 00:26:09;;;;;;;5.20;3.25;;;17.50;90.70;;;;;;5153610;27;20402;-50
2022/09/01 00:28:36;;;;;;;3.30;2.75;;;17.60;90.70;;;;;;5145098;27;20168;-57
2022/09/01 00:31:03;;;;;;;3.50;3.15;;;17.60;90.70;;;;;;5159258;27;20062;-53
2022/09/01 00:33:29;;;;;;;4.88;3.40;;;17.60;90.60;;;;;;5153495;27;20027;-58
2022/09/01 00:35:55;;;;;;;5.20;3.88;;;17.60;90.70;;;;;;5153563;27;20025;-58
2022/09/01 00:38:20;;;;;;;16.15;10.60;;;17.60;90.60;;;;;;5153789;27;20031;-54
2022/09/01 00:40:46;;;;;;;12.48;7.45;;;17.60;90.60;;;;;;5153771;27;20034;-52
2022/09/01 00:43:41;;;;;;;11.00;7.88;;;17.60;90.70;;;;;;5134586;27;20038;-56
2022/09/01 00:46:14;;;;;;;6.68;4.95;;;17.60;90.80;;;;;;5141654;27;20042;-54
2022/09/01 00:48:40;;;;;;;4.20;3.08;;;17.60;90.80;;;;;;5129274;27;20088;-54
2022/09/01 00:51:08;;;;;;;5.75;3.90;;;17.60;90.70;;;;;;5141068;27;20039;-53
2022/09/01 00:53:35;;;;;;;3.55;2.92;;;17.50;90.90;;;;;;5146839;27;20038;-54
2022/09/01 00:56:02;;;;;;;9.82;5.88;;;17.50;91.00;;;;;;5149633;27;20038;-55
2022/09/01 00:58:29;;;;;;;10.80;6.30;;;17.40;91.10;;;;;;5153295;27;20398;-58
2022/09/01 01:00:55;;;;;;;9.52;4.25;;;17.40;91.20;;;;;;5152357;27;20474;-57
2022/09/01 01:03:22;;;;;;;4.05;3.50;;;17.30;91.20;;;;;;5152559;27;20098;-51
2022/09/01 01:05:56;;;;;;;5.63;3.20;;;17.30;91.30;;;;;;5152588;27;20378;-53
2022/09/01 01:08:33;;;;;;;5.80;4.22;;;17.30;91.30;;;;;;5153025;27;20110;-56
2022/09/01 01:11:18;;;;;;;5.90;2.92;;;17.30;91.40;;;;;;5151203;27;20057;-54
2022/09/01 01:14:00;;;;;;;5.25;3.45;;;17.30;91.50;;;;;;5153193;27;20034;-57
2022/09/01 01:16:28;;;;;;;6.20;3.40;;;17.20;91.50;;;;;;5152778;27;20554;-51
2022/09/01 01:18:53;;;;;;;5.30;3.35;;;17.30;91.50;;;;;;5153042;27;20123;-50
2022/09/01 01:24:31;;;;;;;5.22;3.00;;;17.30;91.50;;;;;;5141821;27;20470;-57
2022/09/01 01:26:58;;;;;;;4.15;2.80;;;17.20;91.60;;;;;;5128108;27;20039;-59
2022/09/01 01:29:27;;;;;;;7.60;5.30;;;17.30;91.70;;;;;;5152653;27;20030;-57
2022/09/01 01:31:53;;;;;;;10.10;7.53;;;17.30;91.70;;;;;;5151954;27;20026;-51
2022/09/01 01:34:20;;;;;;;6.70;5.22;;;17.30;91.70;;;;;;5152645;27;20056;-51
2022/09/01 01:36:46;;;;;;;7.85;5.10;;;17.20;91.70;;;;;;5152033;27;20159;-52
2022/09/01 01:39:16;;;;;;;5.45;4.35;;;17.20;91.80;;;;;;5152841;27;20097;-56
2022/09/01 01:41:47;;;;;;;6.68;4.18;;;17.20;91.80;;;;;;5151636;27;20117;-52
2022/09/01 01:44:15;;;;;;;5.82;3.88;;;17.10;91.90;;;;;;5152748;27;20042;-55
2022/09/01 01:46:44;;;;;;;8.15;3.38;;;17.10;92.00;;;;;;5152576;27;20082;-58
2022/09/01 01:49:12;;;;;;;5.40;3.28;;;17.10;91.90;;;;;;5152433;27;20509;-54
2022/09/01 01:51:39;;;;;;;4.95;3.38;;;17.20;91.90;;;;;;5149431;27;20022;-55
2022/09/01 01:54:06;;;;;;;6.20;3.75;;;17.20;91.90;;;;;;5152158;27;20068;-53
2022/09/01 01:56:32;;;;;;;6.13;3.88;;;17.20;91.90;;;;;;5152216;27;20118;-52
2022/09/01 01:59:00;;;;;;;5.28;3.88;;;17.20;91.80;;;;;;5152588;27;20039;-53
2022/09/01 02:01:28;;;;;;;4.82;3.85;;;17.10;92.00;;;;;;5151513;27;20054;-52
2022/09/01 02:03:55;;;;;;;4.75;3.40;;;17.00;92.00;;;;;;5152500;27;20075;-50
2022/09/01 02:06:23;;;;;;;4.93;4.28;;;16.90;92.30;;;;;;5151304;27;20022;-58
2022/09/01 02:08:51;;;;;;;7.25;4.53;;;16.90;92.40;;;;;;5146591;27;20121;-57
2022/09/01 02:11:18;;;;;;;4.63;3.53;;;16.90;92.50;;;;;;5143783;27;20645;-56
2022/09/01 02:13:45;;;;;;;6.28;3.60;;;16.90;92.60;;;;;;5152311;27;20101;-56
2022/09/01 02:16:11;;;;;;;6.53;3.55;;;16.90;92.50;;;;;;5130739;27;20609;-53
2022/09/01 02:18:41;;;;;;;6.57;4.43;;;16.80;92.70;;;;;;5154951;27;20022;-52
2022/09/01 02:21:10;;;;;;;5.00;3.88;;;16.80;92.70;;;;;;5151831;27;20177;-54
2022/09/01 02:23:39;;;;;;;4.82;3.08;;;16.80;92.80;;;;;;5152366;27;20129;-54
2022/09/01 02:26:07;;;;;;;3.58;3.17;;;16.70;93.00;;;;;;5152283;27;20109;-55
2022/09/01 02:28:38;;;;;;;6.32;3.20;;;16.70;92.90;;;;;;5152862;27;20037;-53
2022/09/01 02:31:07;;;;;;;4.22;2.90;;;16.60;93.10;;;;;;5151605;27;20058;-53
2022/09/01 02:33:35;;;;;;;5.72;4.72;;;16.60;93.30;;;;;;5148995;27;20081;-51
2022/09/01 02:36:07;;;;;;;6.70;4.30;;;16.60;93.30;;;;;;5119566;27;20031;-55
2022/09/01 02:38:33;;;;;;;6.78;5.90;;;16.70;93.40;;;;;;5136408;27;20176;-54
2022/09/01 02:41:00;;;;;;;7.22;5.28;;;16.70;93.40;;;;;;5148387;27;20091;-53
2022/09/01 02:43:28;;;;;;;6.00;4.30;;;16.80;93.40;;;;;;5151596;27;20037;-58
2022/09/01 02:45:59;;;;;;;4.30;3.65;;;16.80;93.30;;;;;;5152883;27;20039;-51
2022/09/01 02:48:34;;;;;;;5.85;3.40;;;16.70;93.40;;;;;;5154751;27;20398;-57
2022/09/01 02:51:01;;;;;;;5.93;3.80;;;16.60;93.60;;;;;;5155206;27;20067;-54
2022/09/01 02:53:29;;;;;;;4.43;2.97;;;16.60;93.70;;;;;;5155364;27;20037;-53
2022/09/01 02:55:57;;;;;;;3.25;2.70;;;16.50;93.80;;;;;;5155824;27;20041;-57
2022/09/01 02:58:25;;;;;;;5.35;3.42;;;16.40;93.90;;;;;;5137873;27;20030;-55
2022/09/01 03:00:56;;;;;;;4.43;2.70;;;16.40;94.10;;;;;;5155262;27;20033;-53
2022/09/01 03:03:24;;;;;;;5.05;3.42;;;16.30;94.10;;;;;;5155280;27;20033;-55
2022/09/01 03:05:56;;;;;;;5.10;3.05;;;16.20;94.30;;;;;;5155166;27;20486;-53
2022/09/01 03:08:24;;;;;;;5.00;2.80;;;16.20;94.40;;;;;;5137344;27;20037;-56
2022/09/01 03:10:52;;;;;;;5.10;3.40;;;16.20;94.50;;;;;;5155260;27;20026;-55
2022/09/01 03:13:22;;;;;;;3.70;2.90;;;16.10;94.60;;;;;;5137502;27;20027;-54
2022/09/01 03:15:49;;;;;;;4.60;2.95;;;16.00;94.70;;;;;;5137795;27;20469;-53
2022/09/01 03:18:17;;;;;;;5.35;2.80;;;15.90;94.90;;;;;;5155602;27;20094;-50
2022/09/01 03:20:49;;;;;;;6.32;2.80;;;15.80;95.10;;;;;;5155688;27;20045;-58
2022/09/01 03:23:17;;;;;;;4.95;2.95;;;15.60;95.30;;;;;;5157525;27;20050;-49
2022/09/01 03:25:44;;;;;;;4.90;3.00;;;15.50;95.50;;;;;;5160531;27;20073;-54
2022/09/01 03:28:11;;;;;;;5.00;2.70;;;15.50;95.60;;;;;;5160026;27;20034;-51
2022/09/01 03:30:43;;;;;;;4.93;3.00;;;15.50;95.60;;;;;;5155100;27;20159;-50
2022/09/01 03:33:09;;;;;;;5.80;3.03;;;15.40;95.90;;;;;;5155406;27;20591;-56
2022/09/01 03:35:35;;;;;;;6.07;2.80;;;15.40;95.90;;;;;;5117997;27;20073;-57
2022/09/01 03:38:04;;;;;;;4.30;3.10;;;15.40;96.10;;;;;;5148422;27;20061;-54
2022/09/01 03:40:34;;;;;;;6.05;3.58;;;15.40;96.00;;;;;;5171911;27;20039;-56
2022/09/01 03:43:03;;;;;;;4.68;2.90;;;15.40;96.10;;;;;;5155150;27;20033;-58
2022/09/01 03:45:34;;;;;;;5.90;2.90;;;15.50;96.00;;;;;;5154608;27;20034;-60
2022/09/01 03:48:07;;;;;;;7.53;3.58;;;15.60;95.90;;;;;;5155109;27;20054;-55
2022/09/01 03:50:35;;;;;;;5.50;3.33;;;15.60;96.00;;;;;;5137373;27;20125;-57
2022/09/01 03:53:01;;;;;;;5.88;3.40;;;15.60;96.00;;;;;;5154908;27;20023;-56
2022/09/01 03:55:33;;;;;;;4.93;2.72;;;15.60;95.90;;;;;;5154004;27;20112;-52
2022/09/01 03:58:06;;;;;;;7.50;3.00;;;15.70;96.10;;;;;;5136167;27;20405;-55
2022/09/01 04:00:41;;;;;;;5.53;2.92;;;15.70;96.00;;;;;;5154215;27;20139;-58
2022/09/01 04:03:10;;;;;;;4.03;3.17;;;15.70;96.00;;;;;;5154740;27;20034;-57
2022/09/01 04:05:38;;;;;;;7.05;3.45;;;15.70;96.20;;;;;;5135538;27;20098;-55
2022/09/01 04:08:06;;;;;;;7.10;4.68;;;15.70;96.10;;;;;;5145839;27;20062;-56
2022/09/01 04:10:34;;;;;;;9.10;4.13;;;15.70;95.90;;;;;;5154376;27;20041;-56
2022/09/01 04:13:01;;;;;;;7.00;3.70;;;15.70;96.00;;;;;;5126879;27;20038;-56
2022/09/01 04:15:28;;;;;;;3.72;2.80;;;15.60;96.20;;;;;;5125430;27;20037;-53
2022/09/01 04:18:08;;;;;;;4.57;2.97;;;15.50;96.40;;;;;;5151839;27;20015;-57
2022/09/01 04:20:47;;;;;;;4.50;3.00;;;15.40;96.70;;;;;;5159818;27;20027;-56
2022/09/01 04:23:28;;;;;;;4.82;3.00;;;15.40;96.70;;;;;;5147221;27;20023;-56
2022/09/01 04:26:09;;;;;;;3.85;2.85;;;15.40;96.70;;;;;;5153784;27;20030;-53
2022/09/01 04:28:49;;;;;;;8.80;4.43;;;15.40;96.80;;;;;;5135207;27;20129;-57
2022/09/01 04:31:20;;;;;;;4.55;4.03;;;15.40;97.00;;;;;;5152802;27;20029;-56
2022/09/01 04:33:54;;;;;;;5.60;4.25;;;15.40;97.10;;;;;;5153871;27;20039;-51
2022/09/01 04:36:24;;;;;;;4.35;3.20;;;15.40;97.00;;;;;;5153213;27;20499;-54
2022/09/01 04:38:59;;;;;;;5.97;3.55;;;15.40;97.00;;;;;;5153831;27;20113;-52
2022/09/01 04:41:29;;;;;;;5.45;3.75;;;15.40;97.00;;;;;;5148249;27;20633;-54
2022/09/01 04:44:00;;;;;;;4.60;3.33;;;15.40;97.10;;;;;;5156648;27;20060;-55
2022/09/01 04:46:30;;;;;;;5.90;3.70;;;15.40;97.00;;;;;;5153294;27;20397;-55
2022/09/01 04:49:15;;;;;;;4.53;3.35;;;15.40;97.00;;;;;;5153713;27;20030;-56
2022/09/01 04:51:43;;;;;;;5.95;3.50;;;15.40;97.00;;;;;;5151735;27;20026;-55
2022/09/01 04:54:13;;;;;;;5.88;3.60;;;15.30;97.20;;;;;;5153253;27;20027;-55
2022/09/01 04:56:40;;;;;;;8.38;5.70;;;15.20;97.20;;;;;;5153463;27;20026;-56
2022/09/01 04:59:09;;;;;;;7.78;4.55;;;15.20;97.50;;;;;;5134833;27;20030;-56
2022/09/01 05:01:42;;;;;;;4.78;3.20;;;15.30;97.50;;;;;;5152332;27;20034;-53
2022/09/01 05:04:11;;;;;;;5.25;3.50;;;15.20;97.40;;;;;;5152667;27;20398;-52
2022/09/01 05:06:40;;;;;;;5.57;3.38;;;15.20;97.50;;;;;;5126087;27;20439;-51
2022/09/01 05:09:08;;;;;;;4.88;3.28;;;15.30;97.60;;;;;;5138734;27;20027;-51
2022/09/01 05:11:36;;;;;;;8.60;3.40;;;15.20;97.40;;;;;;5152049;27;20039;-54
2022/09/01 05:14:04;;;;;;;6.78;3.70;;;15.30;97.50;;;;;;5134088;27;20048;-52
2022/09/01 05:16:30;;;;;;;5.75;4.00;;;15.30;97.30;;;;;;5153022;27;20115;-51
2022/09/01 05:18:56;;;;;;;7.00;4.13;;;15.20;97.30;;;;;;5153093;27;20034;-51
2022/09/01 05:21:28;;;;;;;5.15;3.83;;;15.20;97.50;;;;;;5116010;27;20145;-58
2022/09/01 05:23:56;;;;;;;7.05;3.45;;;15.30;97.40;;;;;;5134038;27;20083;-55
2022/09/01 05:26:25;;;;;;;6.43;3.55;;;15.40;97.20;;;;;;5113551;27;20117;-56
2022/09/01 05:28:53;;;;;;;5.28;3.65;;;15.40;97.00;;;;;;5132147;27;20391;-50
2022/09/01 05:31:20;;;;;;;7.38;4.55;;;15.40;97.00;;;;;;5149917;27;20069;-60
2022/09/01 05:33:49;;;;;;;8.10;3.60;;;15.40;97.10;;;;;;5133822;27;20045;-53
2022/09/01 05:36:18;;;;;;;9.18;3.60;;;15.30;97.10;;;;;;5143937;27;20034;-49
2022/09/01 05:38:46;;;;;;;7.15;3.30;;;15.30;97.50;;;;;;5174261;27;20082;-51
2022/09/01 05:41:15;;;;;;;7.15;3.75;;;15.30;97.40;;;;;;5153884;27;20454;-49
2022/09/01 05:43:48;;;;;;;8.15;3.30;;;15.20;97.40;;;;;;5155608;27;20038;-50
2022/09/01 05:46:21;;;;;;;5.38;3.10;;;15.30;97.50;;;;;;5154205;27;20038;-58
2022/09/01 05:48:48;;;;;;;10.98;4.05;;;15.30;97.30;;;;;;5153602;27;20551;-54
2022/09/01 05:51:18;;;;;;;7.00;3.58;;;15.30;97.40;;;;;;5153381;27;20031;-61
2022/09/01 05:53:46;;;;;;;6.25;3.97;;;15.20;97.40;;;;;;5151698;27;20014;-59
2022/09/01 05:56:13;;;;;;;7.97;3.67;;;15.10;97.70;;;;;;5133047;27;20075;-54
2022/09/01 05:58:43;;;;;;;7.38;4.05;;;15.10;97.70;;;;;;5114011;27;20089;-55
2022/09/01 06:01:15;;;;;;;7.93;3.90;;;15.00;97.70;;;;;;5151507;27;20022;-59
2022/09/01 06:03:43;;;;;;;9.30;3.88;;;15.10;97.80;;;;;;5152404;27;20398;-53
2022/09/01 06:06:11;;;;;;;8.13;3.92;;;15.10;97.70;;;;;;5131648;27;20035;-59
2022/09/01 06:08:37;;;;;;;10.63;4.57;;;15.20;97.80;;;;;;5134243;27;20130;-59
2022/09/01 06:11:11;;;;;;;9.52;4.65;;;15.20;97.80;;;;;;5151661;27;20121;-57
2022/09/01 06:13:41;;;;;;;14.55;4.05;;;15.20;97.80;;;;;;5133524;27;20049;-54
2022/09/01 06:16:10;;;;;;;9.90;4.03;;;15.20;97.80;;;;;;5134100;27;20484;-53
2022/09/01 06:18:37;;;;;;;6.43;4.10;;;15.20;97.80;;;;;;5152634;27;20570;-57
2022/09/01 06:21:07;;;;;;;12.15;4.00;;;15.30;97.90;;;;;;5150907;27;20054;-53
2022/09/01 06:23:33;;;;;;;9.23;4.45;;;15.40;97.70;;;;;;5153126;27;20122;-58
2022/09/01 06:25:58;;;;;;;9.77;4.38;;;15.40;97.70;;;;;;5158564;27;20038;-55
2022/09/01 06:28:25;;;;;;;6.63;3.70;;;15.50;97.40;;;;;;5156214;27;20038;-54
2022/09/01 06:30:52;;;;;;;5.93;3.65;;;15.50;97.50;;;;;;5137403;27;20057;-60
2022/09/01 06:33:21;;;;;;;5.57;3.92;;;15.60;97.40;;;;;;5142818;27;20031;-54
2022/09/01 06:35:47;;;;;;;10.25;4.38;;;15.70;97.80;;;;;;5166248;27;20108;-56
2022/09/01 06:38:16;;;;;;;11.20;3.60;;;15.70;97.40;;;;;;5146841;27;20068;-54
2022/09/01 06:40:42;;;;;;;8.68;4.63;;;15.70;97.30;;;;;;5148791;27;20608;-58
2022/09/01 06:43:10;;;;;;;8.23;4.68;;;15.70;97.30;;;;;;5141251;27;20027;-58
2022/09/01 06:45:42;;;;;;;5.72;3.75;;;15.80;97.30;;;;;;5151566;27;20097;-57
2022/09/01 06:48:14;;;;;;;7.00;4.38;;;15.80;97.30;;;;;;5156121;27;20038;-54
2022/09/01 06:50:40;;;;;;;9.38;3.78;;;15.80;97.40;;;;;;5155138;27;20031;-54
2022/09/01 06:53:15;;;;;;;13.57;4.25;;;15.70;97.80;;;;;;5137093;27;20038;-55
2022/09/01 06:55:42;;;;;;;14.05;4.43;;;15.70;97.50;;;;;;5136835;27;20042;-59
2022/09/01 06:58:12;;;;;;;13.05;3.90;;;15.80;97.40;;;;;;5155727;27;20026;-58
2022/09/01 07:00:40;;;;;;;7.10;3.95;;;15.80;97.40;;;;;;5154763;27;20027;-55
2022/09/01 07:03:12;;;;;;;7.78;4.00;;;15.80;97.40;;;;;;5155523;27;20446;-56
2022/09/01 07:05:44;;;;;;;6.45;3.38;;;15.90;97.40;;;;;;5155964;27;20405;-53
2022/09/01 07:08:14;;;;;;;5.65;3.70;;;16.00;97.40;;;;;;5155530;27;20045;-54
2022/09/01 07:10:46;;;;;;;6.90;3.78;;;16.00;97.40;;;;;;5154318;27;20054;-56
2022/09/01 07:13:24;;;;;;;7.28;3.78;;;16.00;97.60;;;;;;5136762;27;20090;-58
2022/09/01 07:15:52;;;;;;;7.75;3.63;;;15.90;97.60;;;;;;5136431;27;20105;-55
2022/09/01 07:18:24;;;;;;;6.40;3.58;;;16.00;97.40;;;;;;5154880;27;20034;-57
2022/09/01 07:20:51;;;;;;;7.78;3.70;;;16.00;97.50;;;;;;5154661;27;20458;-53
2022/09/01 07:23:23;;;;;;;7.90;3.92;;;16.10;97.30;;;;;;5147283;27;20085;-53
2022/09/01 07:25:54;;;;;;;5.55;3.75;;;16.20;97.20;;;;;;5155250;27;20010;-58
2022/09/01 07:28:22;;;;;;;12.57;4.18;;;16.20;97.10;;;;;;5155111;27;20034;-56
2022/09/01 07:30:51;;;;;;;12.55;3.65;;;16.20;97.10;;;;;;5154770;27;20026;-53
2022/09/01 07:33:19;;;;;;;9.55;4.50;;;16.30;96.90;;;;;;5153901;27;20026;-50
2022/09/01 07:35:46;;;;;;;18.17;5.00;;;16.30;97.10;;;;;;5154994;27;20034;-55
2022/09/01 07:38:12;;;;;;;10.18;4.07;;;16.50;97.00;;;;;;5154104;27;20090;-52
2022/09/01 07:40:40;;;;;;;12.48;5.03;;;16.50;96.80;;;;;;5160783;27;20109;-55
2022/09/01 07:43:26;;;;;;;10.45;4.63;;;16.60;96.70;;;;;;5154524;27;20041;-49
2022/09/01 07:45:55;;;;;;;7.53;4.45;;;16.80;96.60;;;;;;5154871;27;20019;-52
2022/09/01 07:48:23;;;;;;;7.45;3.72;;;16.90;96.10;;;;;;5118265;27;20046;-54
2022/09/01 07:50:51;;;;;;;13.40;4.20;;;17.00;95.90;;;;;;5154522;27;20087;-49
2022/09/01 07:53:24;;;;;;;10.07;3.78;;;17.10;95.80;;;;;;5154132;27;20037;-54
2022/09/01 07:55:52;;;;;;;5.60;3.53;;;17.20;95.60;;;;;;5154780;27;20035;-54
2022/09/01 07:58:20;;;;;;;7.80;3.45;;;17.40;95.30;;;;;;5154010;27;20102;-54
2022/09/01 08:00:48;;;;;;;5.45;3.22;;;17.30;95.00;;;;;;5135595;27;20100;-53
2022/09/01 08:03:17;;;;;;;5.28;2.90;;;17.40;95.10;;;;;;5135976;27;20065;-54
2022/09/01 08:05:43;;;;;;;7.13;3.33;;;17.60;95.00;;;;;;5153930;27;20031;-55
2022/09/01 08:08:09;;;;;;;8.13;3.05;;;17.70;94.50;;;;;;5133931;27;20451;-56
2022/09/01 08:10:39;;;;;;;9.63;3.20;;;17.80;94.40;;;;;;5156909;27;20026;-54
2022/09/01 08:13:06;;;;;;;5.80;3.00;;;17.90;94.30;;;;;;5174887;27;20094;-52
2022/09/01 08:15:31;;;;;;;5.03;2.90;;;17.80;94.00;;;;;;5175377;27;20019;-53
2022/09/01 08:17:57;;;;;;;19.13;5.50;;;17.80;94.10;;;;;;5169667;27;20091;-56
2022/09/01 08:20:23;;;;;;;7.82;2.80;;;17.90;94.00;;;;;;5152679;27;20034;-56
2022/09/01 08:22:48;;;;;;;6.28;2.97;;;17.90;93.70;;;;;;5144610;27;20038;-55
2022/09/01 08:25:15;;;;;;;5.47;2.97;;;17.90;94.00;;;;;;5141158;27;20042;-57
2022/09/01 08:27:41;;;;;;;7.78;3.10;;;18.00;93.90;;;;;;5125614;27;20043;-56
2022/09/01 08:30:11;;;;;;;4.55;3.17;;;18.00;93.60;;;;;;5139305;27;20114;-62
2022/09/01 08:32:40;;;;;;;5.68;3.28;;;18.00;93.70;;;;;;5164689;27;20374;-53
2022/09/01 08:35:08;;;;;;;6.22;3.53;;;18.10;93.80;;;;;;5153753;27;20022;-57
2022/09/01 08:37:34;;;;;;;4.70;2.90;;;18.30;93.70;;;;;;5134302;27;20097;-56
2022/09/01 08:40:01;;;;;;;10.60;3.50;;;18.40;93.40;;;;;;5153910;27;20645;-53
2022/09/01 08:42:52;;;;;;;5.35;2.97;;;18.40;93.30;;;;;;5152647;27;20029;-55
2022/09/01 08:45:23;;;;;;;7.15;3.25;;;18.40;93.40;;;;;;5148627;27;20030;-54
2022/09/01 08:47:53;;;;;;;9.23;6.13;;;18.50;93.30;;;;;;5140496;27;20043;-55
2022/09/01 08:50:19;;;;;;;5.90;4.05;;;18.60;93.20;;;;;;5141726;27;20039;-57
2022/09/01 08:52:55;;;;;;;7.32;3.95;;;18.70;93.10;;;;;;5134474;27;20037;-56
2022/09/01 08:55:44;;;;;;;4.90;3.20;;;18.90;93.00;;;;;;5125264;27;20027;-60
2022/09/01 08:58:14;;;;;;;5.03;3.13;;;19.00;92.70;;;;;;5132284;27;20031;-59
2022/09/01 09:00:52;;;;;;;4.43;2.80;;;19.10;92.20;;;;;;5150044;27;20090;-54
2022/09/01 09:03:56;;;;;;;4.72;3.00;;;19.20;92.40;;;;;;5151986;27;20578;-55
2022/09/01 09:06:34;;;;;;;6.60;3.00;;;19.40;92.40;;;;;;5140510;27;20102;-60
2022/09/01 09:09:04;;;;;;;3.92;2.90;;;19.50;91.80;;;;;;5125804;27;20032;-60
2022/09/01 09:12:01;;;;;;;5.57;3.45;;;19.50;91.60;;;;;;5140049;27;20182;-59
2022/09/01 09:14:35;;;;;;;8.52;3.15;;;19.60;91.30;;;;;;5136953;27;20023;-61
2022/09/01 09:17:03;;;;;;;6.22;2.90;;;19.70;91.10;;;;;;5144412;27;20051;-61
2022/09/01 09:19:32;;;;;;;4.45;2.97;;;19.80;91.00;;;;;;5146785;27;20113;-61
2022/09/01 09:22:01;;;;;;;5.15;2.95;;;19.90;91.00;;;;;;5149750;27;20038;-60
2022/09/01 09:24:54;;;;;;;6.28;2.80;;;19.80;90.90;;;;;;5150829;27;20065;-60
2022/09/01 09:27:32;;;;;;;6.38;2.92;;;19.90;90.90;;;;;;5149090;27;20034;-59
2022/09/01 09:30:07;;;;;;;5.35;3.00;;;20.10;90.80;;;;;;5143984;27;20046;-59
2022/09/01 09:33:02;;;;;;;6.40;3.10;;;20.30;90.70;;;;;;5144669;27;20015;-62
2022/09/01 09:35:35;;;;;;;23.85;5.68;;;20.40;90.60;;;;;;5131299;27;20038;-60
2022/09/01 09:38:18;;;;;;;24.17;6.40;;;20.50;90.40;;;;;;5145388;27;20037;-61
2022/09/01 09:41:02;;;;;;;9.75;3.35;;;20.70;90.00;;;;;;5149715;27;20034;-61
2022/09/01 09:43:32;;;;;;;9.68;4.25;;;20.80;88.80;;;;;;5150371;27;20517;-60
2022/09/01 09:46:21;;;;;;;6.70;3.60;;;20.80;88.80;;;;;;5149186;27;20139;-60
2022/09/01 09:48:48;;;;;;;4.97;3.20;;;20.90;88.90;;;;;;5146720;27;20027;-61
2022/09/01 09:51:21;;;;;;;5.18;3.92;;;20.90;88.80;;;;;;5148660;27;20023;-61
2022/09/01 09:53:47;;;;;;;5.05;3.08;;;21.00;88.50;;;;;;5148163;27;20083;-61
2022/09/01 09:56:17;;;;;;;4.85;3.05;;;21.00;87.80;;;;;;5150601;27;20494;-61
2022/09/01 09:58:46;;;;;;;141.50;29.25;;;21.10;87.60;;;;;;5134666;27;20067;-60
2022/09/01 10:01:21;;;;;;;19.40;4.65;;;21.10;86.80;;;;;;5156624;27;20034;-57
2022/09/01 10:03:50;;;;;;;8.32;3.65;;;21.10;86.70;;;;;;5138489;27;20050;-60
2022/09/01 10:06:32;;;;;;;5.07;3.15;;;21.30;86.40;;;;;;5149743;27;20031;-58
2022/09/01 10:08:59;;;;;;;29.17;9.13;;;21.50;85.70;;;;;;5109844;27;20208;-59
2022/09/01 10:11:35;;;;;;;56.92;13.77;;;21.70;84.80;;;;;;5138905;27;20083;-59
2022/09/01 10:14:03;;;;;;;11.95;4.50;;;21.70;84.60;;;;;;5132919;27;20030;-60
2022/09/01 10:16:31;;;;;;;6.10;2.70;;;21.80;83.90;;;;;;5152355;27;20088;-60
2022/09/01 10:19:00;;;;;;;9.20;2.75;;;21.90;83.30;;;;;;5151963;27;20035;-60
2022/09/01 10:21:40;;;;;;;7.03;2.78;;;22.00;81.80;;;;;;5148372;27;20489;-61
2022/09/01 10:24:34;;;;;;;6.47;2.47;;;21.90;79.10;;;;;;5150334;27;20505;-64
2022/09/01 10:27:16;;;;;;;3.45;2.20;;;22.00;78.50;;;;;;5133380;27;20042;-59
2022/09/01 10:29:50;;;;;;;3.33;2.42;;;22.20;77.90;;;;;;5125938;27;20030;-62
2022/09/01 10:32:23;;;;;;;3.88;2.53;;;22.40;77.10;;;;;;5151434;27;20034;-60
2022/09/01 10:34:50;;;;;;;3.13;2.30;;;22.60;77.60;;;;;;5151934;27;20397;-61
2022/09/01 10:37:16;;;;;;;7.22;2.40;;;22.80;77.20;;;;;;5151903;27;20027;-60
2022/09/01 10:40:17;;;;;;;9.00;2.40;;;22.80;76.90;;;;;;5151817;27;20029;-60
2022/09/01 10:42:47;;;;;;;4.25;2.17;;;22.70;76.00;;;;;;5151649;27;20027;-62
2022/09/01 10:45:31;;;;;;;7.47;2.40;;;22.70;74.10;;;;;;5151403;27;20034;-62
2022/09/01 10:48:37;;;;;;;3.33;2.08;;;22.70;73.90;;;;;;5152084;27;20051;-62
2022/09/01 10:51:11;;;;;;;3.65;2.13;;;23.00;73.10;;;;;;5043262;28;20037;-62
2022/09/01 10:53:40;;;;;;;9.52;2.53;;;23.00;72.50;;;;;;5044527;28;20056;-61
2022/09/01 10:56:15;;;;;;;2.53;1.90;;;23.10;71.00;;;;;;5098954;27;20110;-60
2022/09/01 10:59:04;;;;;;;3.53;2.33;;;22.90;68.80;;;;;;5152091;27;20420;-59
2022/09/01 11:01:42;;;;;;;3.30;1.92;;;22.80;69.80;;;;;;5150870;27;20026;-61
2022/09/01 11:04:12;;;;;;;3.72;2.10;;;23.00;70.40;;;;;;5151978;27;20554;-62
2022/09/01 11:06:40;;;;;;;5.13;1.95;;;23.20;70.50;;;;;;5151668;27;20030;-61
2022/09/01 11:09:21;;;;;;;8.30;2.20;;;23.30;69.50;;;;;;5153997;27;20438;-62
2022/09/01 11:12:15;;;;;;;3.13;1.90;;;23.40;69.90;;;;;;5154759;27;20114;-62
2022/09/01 11:15:13;;;;;;;3.85;2.20;;;23.60;69.40;;;;;;5155450;27;20025;-59
2022/09/01 11:17:53;;;;;;;5.00;2.83;;;23.60;68.90;;;;;;5106457;27;20142;-60
2022/09/01 11:20:27;;;;;;;6.55;2.40;;;23.70;67.50;;;;;;5134828;27;20436;-60
2022/09/01 11:22:55;;;;;;;6.90;2.10;;;23.80;67.80;;;;;;5154855;27;20428;-62
2022/09/01 11:25:42;;;;;;;6.65;2.40;;;23.80;67.90;;;;;;5154999;27;20331;-60
2022/09/01 11:28:14;;;;;;;5.20;2.20;;;23.80;67.00;;;;;;5138070;27;20023;-60
2022/09/01 11:30:52;;;;;;;10.48;2.85;;;23.90;67.00;;;;;;5154569;27;20505;-62
2022/09/01 11:33:49;;;;;;;4.32;2.47;;;23.80;66.80;;;;;;5134203;27;20039;-58
2022/09/01 11:36:24;;;;;;;5.75;2.30;;;23.80;65.40;;;;;;5128319;27;20034;-61
2022/09/01 11:38:57;;;;;;;5.82;2.13;;;23.80;65.20;;;;;;5136543;27;20126;-63
2022/09/01 11:41:32;;;;;;;8.95;2.47;;;23.90;64.60;;;;;;5135525;27;20045;-60
2022/09/01 11:44:00;;;;;;;3.78;2.10;;;23.80;65.20;;;;;;5154333;27;20076;-60
2022/09/01 11:46:33;;;;;;;3.70;1.90;;;23.80;64.80;;;;;;5154826;27;20074;-60
2022/09/01 11:49:05;;;;;;;5.47;2.40;;;23.80;65.90;;;;;;5135962;27;20121;-62
2022/09/01 11:51:44;;;;;;;4.15;1.98;;;23.70;65.60;;;;;;5140362;27;20064;-59
2022/09/01 11:54:11;;;;;;;2.70;2.03;;;23.60;66.50;;;;;;5136635;27;20034;-60
2022/09/01 11:56:37;;;;;;;2.45;1.92;;;23.60;65.70;;;;;;5155231;27;20033;-61
2022/09/01 11:59:02;;;;;;;2.45;2.08;;;23.60;64.70;;;;;;5136863;27;20030;-58
2022/09/01 12:01:39;;;;;;;5.65;2.30;;;23.50;65.20;;;;;;5140159;27;20031;-59
2022/09/01 12:04:23;;;;;;;2.72;1.92;;;23.40;64.90;;;;;;5154474;27;20128;-60
2022/09/01 12:06:59;;;;;;;1.85;1.70;;;23.20;64.20;;;;;;5154253;27;20070;-62
2022/09/01 12:09:43;;;;;;;3.38;2.05;;;23.10;64.80;;;;;;5141335;27;20041;-61
2022/09/01 12:12:36;;;;;;;5.25;2.40;;;23.30;65.50;;;;;;5153935;27;20079;-59
2022/09/01 12:15:17;;;;;;;7.00;2.80;;;23.50;64.10;;;;;;5154485;27;20035;-61
2022/09/01 12:17:43;;;;;;;7.63;4.18;;;23.70;64.50;;;;;;5151687;27;20485;-60
2022/09/01 12:20:22;;;;;;;7.38;2.65;;;23.40;64.10;;;;;;5152953;27;20041;-60
2022/09/01 12:22:48;;;;;;;5.32;2.22;;;23.60;64.10;;;;;;5133587;27;20042;-61
2022/09/01 12:25:44;;;;;;;5.50;2.40;;;23.80;64.30;;;;;;5137270;27;20043;-59
2022/09/01 12:28:10;;;;;;;4.25;2.00;;;23.80;62.80;;;;;;5106331;27;20096;-61
2022/09/01 12:30:39;;;;;;;3.47;1.83;;;23.40;62.50;;;;;;5128388;27;20142;-59
2022/09/01 12:33:09;;;;;;;2.10;1.80;;;22.80;63.20;;;;;;5117862;27;20037;-60
2022/09/01 12:35:35;;;;;;;2.88;1.90;;;22.50;63.90;;;;;;5149267;27;20382;-61
2022/09/01 12:38:36;;;;;;;2.42;1.90;;;22.70;64.10;;;;;;5133259;27;20039;-61
2022/09/01 12:41:01;;;;;;;2.47;1.58;;;22.90;63.00;;;;;;5069658;28;20040;-62
2022/09/01 12:43:39;;;;;;;2.63;1.88;;;23.20;62.70;;;;;;5103776;27;20043;-60
2022/09/01 12:46:09;;;;;;;5.13;2.35;;;23.30;62.40;;;;;;5152032;27;20083;-60
2022/09/01 12:48:40;;;;;;;2.10;1.90;;;23.60;62.60;;;;;;5135218;27;20039;-58
2022/09/01 12:51:25;;;;;;;4.50;2.15;;;23.80;62.30;;;;;;5121911;27;20118;-59
2022/09/01 12:53:56;;;;;;;5.72;2.08;;;24.10;61.90;;;;;;5161430;27;20027;-61
2022/09/01 12:56:32;;;;;;;3.17;2.22;;;24.30;61.50;;;;;;5161130;27;20035;-60
2022/09/01 12:59:14;;;;;;;2.45;2.10;;;24.20;61.00;;;;;;5135224;27;20375;-60
2022/09/01 13:01:42;;;;;;;3.22;1.90;;;24.00;61.30;;;;;;5153705;27;20118;-60
2022/09/01 13:04:10;;;;;;;3.17;1.85;;;23.80;61.80;;;;;;5152903;27;20129;-61
2022/09/01 13:06:36;;;;;;;2.70;2.13;;;23.60;61.80;;;;;;5153620;27;20036;-60
2022/09/01 13:09:02;;;;;;;2.13;1.90;;;23.40;62.10;;;;;;5153998;27;20117;-59
2022/09/01 13:11:28;;;;;;;4.93;2.00;;;23.20;62.00;;;;;;5133684;27;20674;-50